Aviation Digital Data Service (ADDS)

Output produced by METARs form (1948 UTC 06 December 2016)
found at http://aviationweather.gov/adds/metars/
 
KMHT 061732Z 0618/0718 36004KT P6SM BKN250 
     FM070600 03004KT P6SM BKN050 OVC150 
     FM071100 VRB03KT 6SM -SHSN BKN025 OVC050